Time;durP1;ratioP1;P1;durP2;ratioP2;P2;SDS_P1;SDS_P2;PMS_P1;PMS_P2;Temp;Humidity;BMP_temperature;BMP_pressure;BME280_temperature;BME280_humidity;BME280_pressure;Samples;Min_cycle;Max_cycle;Signal;HPM_P1;HPM_P2
2022/11/02 04:01:20;;;;;;;;;;;12.60;99.90;;;;;;5758742;23;19930;-71
2022/11/02 04:03:48;;;;;;;;;;;12.60;99.90;;;;;;4953270;28;20381;-71
2022/11/02 04:06:16;;;;;;;;;;;12.60;99.90;;;;;;4954019;28;19926;-72
2022/11/02 04:08:45;;;;;;;;;;;12.60;99.90;;;;;;4953861;28;19926;-72
2022/11/02 04:16:49;;;;;;;;;;;12.50;99.90;;;;;;4952716;28;19966;-70
2022/11/02 04:19:35;;;;;;;;;;;12.50;99.90;;;;;;4952498;28;19933;-71
2022/11/02 04:27:40;;;;;;;;;;;12.40;99.90;;;;;;4955140;28;19933;-71
2022/11/02 04:30:09;;;;;;;;;;;12.40;99.90;;;;;;4953063;28;19933;-72
2022/11/02 04:35:28;;;;;;;;;;;12.40;99.90;;;;;;4953453;28;20302;-71
2022/11/02 04:40:40;;;;;;;;;;;12.40;99.90;;;;;;4952829;28;19929;-71
2022/11/02 04:43:07;;;;;;;;;;;12.30;99.90;;;;;;4958046;28;20029;-71
2022/11/02 04:45:35;;;;;;;;;;;12.30;99.90;;;;;;4953410;28;19927;-72
2022/11/02 04:48:05;;;;;;;;;;;12.30;99.90;;;;;;4957101;28;19934;-71
2022/11/02 04:50:32;;;;;;;;;;;12.30;99.90;;;;;;4952629;28;19933;-70
2022/11/02 04:53:00;;;;;;;;;;;12.20;99.90;;;;;;4948469;28;19927;-71
2022/11/02 04:55:29;;;;;;;;;;;12.20;99.90;;;;;;4953001;28;19933;-72
2022/11/02 04:57:56;;;;;;;;;;;12.20;99.90;;;;;;4952948;28;20309;-72
2022/11/02 05:00:23;;;;;;;;;;;12.20;99.90;;;;;;4952776;28;19933;-71
2022/11/02 05:02:52;;;;;;;;;;;12.20;99.90;;;;;;4952034;28;19950;-71
2022/11/02 05:05:22;;;;;;;;;;;12.30;99.90;;;;;;4953033;28;19930;-72
2022/11/02 05:07:51;;;;;;;;;;;12.20;99.90;;;;;;4952561;28;20401;-70
2022/11/02 05:10:18;;;;;;;;;;;12.30;99.90;;;;;;4961334;28;19926;-72
2022/11/02 05:12:46;;;;;;;;;;;12.20;99.90;;;;;;4952750;28;19966;-71
2022/11/02 05:15:14;;;;;;;;;;;12.20;99.90;;;;;;4954382;28;20397;-72
2022/11/02 05:17:41;;;;;;;;;;;12.20;99.90;;;;;;4952966;28;19927;-71
2022/11/02 05:20:09;;;;;;;;;;;12.20;99.90;;;;;;4952878;28;20397;-71
2022/11/02 05:22:41;;;;;;;;;;;12.20;99.90;;;;;;4952362;28;20444;-71
2022/11/02 05:25:08;;;;;;;;;;;12.30;99.90;;;;;;4952771;28;19949;-71
2022/11/02 05:27:36;;;;;;;;;;;12.20;99.90;;;;;;4952652;28;20021;-71
2022/11/02 05:30:04;;;;;;;;;;;12.20;99.90;;;;;;4952188;28;19966;-72
2022/11/02 05:32:31;;;;;;;;;;;12.10;99.90;;;;;;4959673;28;19926;-71
2022/11/02 05:34:58;;;;;;;;;;;12.20;99.90;;;;;;4952294;28;20020;-69
2022/11/02 05:37:25;;;;;;;;;;;12.20;99.90;;;;;;4952457;28;19931;-71
2022/11/02 05:39:54;;;;;;;;;;;12.10;99.90;;;;;;4966643;28;19934;-71
2022/11/02 05:42:24;;;;;;;;;;;12.20;99.90;;;;;;4952187;28;19974;-71
2022/11/02 05:44:51;;;;;;;;;;;12.20;99.90;;;;;;4952152;28;19937;-69
2022/11/02 05:47:18;;;;;;;;;;;12.20;99.90;;;;;;4954040;28;20294;-71
2022/11/02 05:49:45;;;;;;;;;;;12.20;99.90;;;;;;4948368;28;19930;-71
2022/11/02 05:52:12;;;;;;;;;;;12.20;99.90;;;;;;4946605;28;20436;-71
2022/11/02 05:54:39;;;;;;;;;;;12.20;99.90;;;;;;4948843;28;19930;-71
2022/11/02 05:57:07;;;;;;;;;;;12.20;99.90;;;;;;4951794;28;19927;-71
2022/11/02 05:59:34;;;;;;;;;;;12.10;99.90;;;;;;4948520;28;20314;-71
2022/11/02 06:02:00;;;;;;;;;;;12.00;99.90;;;;;;4949768;28;19930;-71
2022/11/02 06:04:27;;;;;;;;;;;12.00;99.90;;;;;;4952707;28;19927;-71
2022/11/02 06:06:54;;;;;;;;;;;12.00;99.90;;;;;;4953080;28;19933;-71
2022/11/02 06:09:21;;;;;;;;;;;12.00;99.90;;;;;;4952311;28;20050;-70
2022/11/02 06:11:48;;;;;;;;;;;12.00;99.90;;;;;;4952654;28;19934;-71
2022/11/02 06:14:16;;;;;;;;;;;12.00;99.90;;;;;;4952278;28;19927;-73
2022/11/02 06:16:43;;;;;;;;;;;11.90;99.90;;;;;;4951709;28;19966;-73
2022/11/02 06:19:09;;;;;;;;;;;11.90;99.90;;;;;;4949412;28;19930;-71
2022/11/02 06:21:36;;;;;;;;;;;11.90;99.90;;;;;;4950925;28;19926;-75
2022/11/02 06:24:03;;;;;;;;;;;11.90;99.90;;;;;;4964150;28;19930;-73
2022/11/02 06:26:30;;;;;;;;;;;11.90;99.90;;;;;;4954560;28;19969;-72
2022/11/02 06:28:56;;;;;;;;;;;11.80;99.90;;;;;;4951166;28;19926;-72
2022/11/02 06:31:25;;;;;;;;;;;11.90;99.90;;;;;;4955148;28;20529;-72
2022/11/02 06:33:52;;;;;;;;;;;11.90;99.90;;;;;;4967182;28;19938;-73
2022/11/02 06:36:18;;;;;;;;;;;11.90;99.90;;;;;;4951741;28;19930;-73
2022/11/02 06:38:46;;;;;;;;;;;11.90;99.90;;;;;;4951216;28;19927;-74
2022/11/02 06:41:12;;;;;;;;;;;11.90;99.90;;;;;;4953812;28;19957;-73
2022/11/02 06:43:40;;;;;;;;;;;11.90;99.90;;;;;;4950559;28;19926;-72
2022/11/02 06:46:06;;;;;;;;;;;11.80;99.90;;;;;;4949048;28;19926;-73
2022/11/02 06:48:35;;;;;;;;;;;11.80;99.90;;;;;;4951212;28;19926;-73
2022/11/02 06:51:02;;;;;;;;;;;11.80;99.90;;;;;;4950932;28;19926;-72
2022/11/02 06:53:28;;;;;;;;;;;11.80;99.90;;;;;;4951075;28;19933;-73
2022/11/02 06:55:56;;;;;;;;;;;11.80;99.90;;;;;;4950298;28;19938;-72
2022/11/02 06:58:23;;;;;;;;;;;11.80;99.90;;;;;;4950942;28;19931;-73
2022/11/02 07:00:50;;;;;;;;;;;11.80;99.90;;;;;;4954893;28;19926;-73
2022/11/02 07:03:17;;;;;;;;;;;11.80;99.90;;;;;;4955925;28;19926;-73
2022/11/02 07:05:49;;;;;;;;;;;11.80;99.90;;;;;;4957972;28;19934;-72
2022/11/02 07:08:16;;;;;;;;;;;11.80;99.90;;;;;;4954960;28;19926;-71
2022/11/02 07:10:42;;;;;;;;;;;11.80;99.90;;;;;;4954274;28;19930;-73
2022/11/02 07:13:09;;;;;;;;;;;11.80;99.90;;;;;;4958823;28;19930;-72
2022/11/02 07:15:36;;;;;;;;;;;11.80;99.90;;;;;;4955672;28;19927;-72
2022/11/02 07:18:04;;;;;;;;;;;11.80;99.90;;;;;;4955022;28;19926;-73
2022/11/02 07:20:32;;;;;;;;;;;11.90;99.90;;;;;;4955574;28;19942;-72
2022/11/02 07:23:01;;;;;;;;;;;11.90;99.90;;;;;;4954600;28;19927;-71
2022/11/02 07:25:29;;;;;;;;;;;11.80;99.90;;;;;;4954690;28;19938;-73
2022/11/02 07:27:58;;;;;;;;;;;11.90;99.90;;;;;;4954384;28;20022;-74
2022/11/02 07:30:25;;;;;;;;;;;11.90;99.90;;;;;;4959850;28;19934;-72
2022/11/02 07:32:52;;;;;;;;;;;11.90;99.90;;;;;;4954498;28;19930;-73
2022/11/02 07:35:19;;;;;;;;;;;12.00;99.90;;;;;;4961583;28;19927;-73
2022/11/02 07:37:54;;;;;;;;;;;12.00;99.90;;;;;;4956307;28;19926;-72
2022/11/02 07:40:22;;;;;;;;;;;12.00;99.90;;;;;;4966589;28;19931;-72
2022/11/02 07:42:49;;;;;;;;;;;12.00;99.90;;;;;;4962462;28;19927;-74
2022/11/02 07:45:19;;;;;;;;;;;12.10;99.90;;;;;;4965873;28;19938;-72
2022/11/02 07:47:47;;;;;;;;;;;12.00;99.90;;;;;;4956461;28;19977;-73
2022/11/02 07:50:14;;;;;;;;;;;12.10;99.90;;;;;;4967083;28;19931;-71
2022/11/02 07:52:45;;;;;;;;;;;12.10;99.90;;;;;;4953792;28;19926;-73
2022/11/02 07:55:12;;;;;;;;;;;12.10;99.90;;;;;;4954378;28;19969;-71
2022/11/02 07:57:42;;;;;;;;;;;12.20;99.90;;;;;;4964205;28;19934;-73
2022/11/02 08:00:09;;;;;;;;;;;12.20;99.90;;;;;;4959424;28;19927;-75
2022/11/02 08:02:38;;;;;;;;;;;12.20;99.90;;;;;;4955139;28;19926;-72
2022/11/02 08:05:05;;;;;;;;;;;12.20;99.90;;;;;;4954082;28;19931;-72
2022/11/02 08:07:32;;;;;;;;;;;12.30;99.90;;;;;;4964635;28;19927;-73
2022/11/02 08:09:59;;;;;;;;;;;12.30;99.90;;;;;;4954456;28;19934;-72
2022/11/02 08:12:26;;;;;;;;;;;12.20;99.90;;;;;;4958466;28;19934;-74
2022/11/02 08:14:55;;;;;;;;;;;12.30;99.90;;;;;;4959741;28;19931;-72
2022/11/02 08:17:22;;;;;;;;;;;12.30;99.90;;;;;;4957542;28;20029;-73
2022/11/02 08:19:49;;;;;;;;;;;12.40;99.90;;;;;;4966654;28;19933;-71
2022/11/02 08:22:16;;;;;;;;;;;12.40;99.90;;;;;;4958749;28;19935;-74
2022/11/02 08:24:42;;;;;;;;;;;12.40;99.90;;;;;;4959814;28;20356;-72
2022/11/02 08:27:09;;;;;;;;;;;12.50;99.90;;;;;;4955123;28;19933;-72
2022/11/02 08:29:36;;;;;;;;;;;12.40;99.90;;;;;;4954503;28;19926;-74
2022/11/02 08:32:05;;;;;;;;;;;12.40;99.90;;;;;;4961248;28;19930;-73
2022/11/02 08:34:31;;;;;;;;;;;12.40;99.90;;;;;;4958668;28;19926;-72
2022/11/02 08:36:58;;;;;;;;;;;12.40;99.90;;;;;;4953510;28;19958;-73
2022/11/02 08:39:25;;;;;;;;;;;12.50;99.90;;;;;;4952985;28;19926;-73
2022/11/02 08:41:52;;;;;;;;;;;12.50;99.90;;;;;;4952467;28;19933;-73
2022/11/02 08:44:18;;;;;;;;;;;12.60;99.90;;;;;;4958572;28;19934;-72
2022/11/02 08:46:45;;;;;;;;;;;12.60;99.90;;;;;;4953193;28;19926;-75
2022/11/02 08:49:17;;;;;;;;;;;12.60;99.90;;;;;;4958022;28;19937;-72
2022/11/02 08:51:44;;;;;;;;;;;12.60;99.90;;;;;;4955182;28;19981;-73
2022/11/02 08:54:11;;;;;;;;;;;12.60;99.90;;;;;;4947968;28;19927;-73
2022/11/02 08:56:37;;;;;;;;;;;12.70;99.90;;;;;;4953392;28;20390;-73
2022/11/02 08:59:04;;;;;;;;;;;12.70;99.90;;;;;;4942085;28;19931;-73
2022/11/02 09:01:31;;;;;;;;;;;12.70;99.90;;;;;;4948183;28;19937;-72
2022/11/02 09:03:58;;;;;;;;;;;12.80;99.90;;;;;;4950646;28;19932;-72
2022/11/02 09:06:26;;;;;;;;;;;12.80;99.90;;;;;;4950939;28;19931;-72
2022/11/02 09:08:53;;;;;;;;;;;12.90;99.90;;;;;;4952595;29;19933;-71
2022/11/02 09:11:20;;;;;;;;;;;13.00;99.90;;;;;;4952443;28;19927;-72
2022/11/02 09:13:47;;;;;;;;;;;13.00;99.90;;;;;;4952469;28;19934;-73
2022/11/02 09:16:13;;;;;;;;;;;13.00;99.90;;;;;;4948809;28;19930;-72
2022/11/02 09:18:40;;;;;;;;;;;13.00;99.90;;;;;;4952325;28;20397;-72
2022/11/02 09:21:08;;;;;;;;;;;13.00;99.90;;;;;;4956466;28;19926;-73
2022/11/02 09:23:36;;;;;;;;;;;13.00;99.90;;;;;;4951870;28;19934;-73
2022/11/02 09:26:03;;;;;;;;;;;13.20;99.90;;;;;;4952457;28;19937;-71
2022/11/02 09:28:30;;;;;;;;;;;13.20;99.90;;;;;;4958264;28;19931;-71
2022/11/02 09:30:56;;;;;;;;;;;13.20;99.90;;;;;;4951847;28;19930;-71
2022/11/02 09:33:23;;;;;;;;;;;13.30;99.90;;;;;;4952398;28;19930;-70
2022/11/02 09:35:50;;;;;;;;;;;13.30;99.90;;;;;;4952489;28;19927;-71
2022/11/02 09:38:18;;;;;;;;;;;13.40;99.90;;;;;;4951950;28;19926;-71
2022/11/02 09:41:02;;;;;;;;;;;13.40;99.90;;;;;;4951217;28;20005;-72
2022/11/02 09:43:34;;;;;;;;;;;13.50;99.90;;;;;;4950736;28;19937;-72
2022/11/02 09:46:04;;;;;;;;;;;13.60;99.90;;;;;;4951408;28;19938;-72
2022/11/02 09:48:32;;;;;;;;;;;13.80;99.90;;;;;;4951850;28;19973;-71
2022/11/02 09:51:02;;;;;;;;;;;13.90;99.90;;;;;;4947378;28;19927;-72
2022/11/02 09:53:33;;;;;;;;;;;13.90;99.90;;;;;;4956517;28;19931;-72
2022/11/02 09:56:02;;;;;;;;;;;13.80;99.90;;;;;;4947220;28;19926;-71
2022/11/02 09:58:32;;;;;;;;;;;14.00;99.90;;;;;;4951727;28;19926;-72
2022/11/02 10:01:03;;;;;;;;;;;14.20;99.90;;;;;;4951650;28;19926;-71
2022/11/02 10:03:36;;;;;;;;;;;14.20;99.90;;;;;;4953112;28;19926;-71
2022/11/02 10:06:06;;;;;;;;;;;14.20;99.90;;;;;;4952123;28;19930;-71
2022/11/02 10:08:37;;;;;;;;;;;14.40;99.90;;;;;;4939861;29;19950;-71
2022/11/02 10:11:15;;;;;;;;;;;14.60;99.90;;;;;;4951288;28;19956;-71
2022/11/02 10:13:44;;;;;;;;;;;14.80;99.90;;;;;;4945402;29;19934;-72
2022/11/02 10:16:13;;;;;;;;;;;14.90;99.90;;;;;;4952686;28;19933;-71
2022/11/02 10:18:40;;;;;;;;;;;17.10;99.90;;;;;;4952530;28;19977;-71
2022/11/02 10:21:09;;;;;;;;;;;21.10;99.90;;;;;;4946781;28;19926;-71
2022/11/02 10:23:38;;;;;;;;;;;23.30;99.90;;;;;;4952039;28;19963;-71
2022/11/02 10:26:05;;;;;;;;;;;24.10;99.90;;;;;;4952916;28;19930;-71
2022/11/02 10:28:34;;;;;;;;;;;23.40;99.90;;;;;;4957266;28;19977;-72
2022/11/02 10:31:01;;;;;;;;;;;24.40;99.90;;;;;;4962542;28;19934;-71
2022/11/02 10:33:28;;;;;;;;;;;23.60;99.90;;;;;;4956688;28;19930;-72
2022/11/02 10:36:04;;;;;;;;;;;23.60;99.90;;;;;;4959505;28;19941;-72
2022/11/02 10:38:36;;;;;;;;;;;25.10;99.90;;;;;;4955797;28;19927;-72
2022/11/02 10:41:13;;;;;;;;;;;24.50;99.90;;;;;;4959684;28;19933;-72
2022/11/02 10:43:48;;;;;;;;;;;26.60;99.90;;;;;;4946254;28;19927;-71
2022/11/02 10:46:21;;;;;;;;;;;23.80;99.90;;;;;;4950446;28;20047;-73
2022/11/02 10:48:52;;;;;;;;;;;24.70;99.90;;;;;;4951259;28;19927;-72
2022/11/02 10:51:20;;;;;;;;;;;26.30;99.90;;;;;;4946590;28;19933;-73
2022/11/02 10:53:48;;;;;;;;;;;26.60;99.90;;;;;;4948434;28;19941;-73
2022/11/02 10:56:16;;;;;;;;;;;24.00;99.90;;;;;;4956389;28;19927;-73
2022/11/02 10:58:49;;;;;;;;;;;24.40;99.90;;;;;;4951866;28;19962;-73
2022/11/02 11:01:16;;;;;;;;;;;27.50;99.90;;;;;;4961017;28;19931;-73
2022/11/02 11:03:53;;;;;;;;;;;27.70;99.90;;;;;;4951050;28;19930;-73
2022/11/02 11:06:20;;;;;;;;;;;28.50;99.90;;;;;;4954612;28;19926;-73
2022/11/02 11:08:48;;;;;;;;;;;27.60;99.90;;;;;;4950897;28;19990;-73
2022/11/02 11:11:18;;;;;;;;;;;27.60;99.90;;;;;;4951259;28;19926;-73
2022/11/02 11:13:53;;;;;;;;;;;28.00;99.90;;;;;;4966697;28;19954;-73
2022/11/02 11:16:20;;;;;;;;;;;27.80;99.90;;;;;;4955687;28;20449;-74
2022/11/02 11:18:50;;;;;;;;;;;27.90;99.90;;;;;;4950689;28;20012;-73
2022/11/02 11:21:16;;;;;;;;;;;27.00;99.90;;;;;;4946509;28;20456;-73
2022/11/02 11:23:43;;;;;;;;;;;27.60;99.90;;;;;;4952657;28;19926;-73
2022/11/02 11:26:25;;;;;;;;;;;28.40;99.90;;;;;;4965329;28;20114;-73
2022/11/02 11:28:54;;;;;;;;;;;28.30;99.90;;;;;;4950353;28;19946;-73
2022/11/02 11:31:21;;;;;;;;;;;27.10;99.90;;;;;;4948896;28;19933;-72
2022/11/02 11:33:50;;;;;;;;;;;26.40;99.90;;;;;;4950437;28;19933;-74
2022/11/02 11:36:22;;;;;;;;;;;27.80;99.90;;;;;;4957018;28;19930;-73
2022/11/02 11:38:50;;;;;;;;;;;27.40;99.90;;;;;;4950836;28;19930;-73
2022/11/02 11:41:17;;;;;;;;;;;28.10;99.90;;;;;;4953646;28;19933;-73
2022/11/02 11:43:44;;;;;;;;;;;26.60;99.90;;;;;;4952859;28;20378;-73
2022/11/02 11:46:13;;;;;;;;;;;26.60;99.90;;;;;;4965446;28;19927;-72
2022/11/02 11:48:42;;;;;;;;;;;28.20;99.90;;;;;;4955539;28;19933;-72
2022/11/02 11:51:26;;;;;;;;;;;27.10;99.90;;;;;;4966945;28;19933;-72
2022/11/02 11:54:26;;;;;;;;;;;25.60;99.90;;;;;;4959170;28;20421;-72
2022/11/02 11:56:54;;;;;;;;;;;23.70;99.90;;;;;;4880525;29;19931;-72
2022/11/02 11:59:23;;;;;;;;;;;26.60;99.90;;;;;;4881042;29;19927;-71
2022/11/02 12:01:53;;;;;;;;;;;25.30;99.90;;;;;;4912438;28;19938;-71
2022/11/02 12:04:31;;;;;;;;;;;24.10;99.90;;;;;;4951124;28;20390;-72
2022/11/02 12:07:03;;;;;;;;;;;24.40;99.90;;;;;;4959250;28;19926;-72
2022/11/02 12:09:34;;;;;;;;;;;24.30;99.90;;;;;;4957882;28;19933;-72
2022/11/02 12:12:04;;;;;;;;;;;24.70;99.90;;;;;;4954725;28;19927;-71
2022/11/02 12:14:37;;;;;;;;;;;23.30;99.90;;;;;;4945972;28;20008;-71
2022/11/02 12:17:17;;;;;;;;;;;24.90;99.90;;;;;;4956549;28;19934;-71
2022/11/02 12:19:52;;;;;;;;;;;25.70;99.90;;;;;;4953304;28;19927;-71
2022/11/02 12:22:23;;;;;;;;;;;25.00;99.90;;;;;;4953272;28;19926;-71
2022/11/02 12:25:02;;;;;;;;;;;25.00;99.90;;;;;;4953862;28;20017;-71
2022/11/02 12:27:34;;;;;;;;;;;22.50;99.90;;;;;;4954141;28;19927;-71
2022/11/02 12:30:11;;;;;;;;;;;21.00;99.90;;;;;;4952935;28;20470;-71
2022/11/02 12:32:47;;;;;;;;;;;21.10;99.90;;;;;;4955430;28;19970;-71
2022/11/02 12:35:26;;;;;;;;;;;20.00;99.90;;;;;;4942581;28;19927;-70
2022/11/02 12:38:00;;;;;;;;;;;22.10;99.90;;;;;;4953607;28;19927;-72
2022/11/02 12:40:31;;;;;;;;;;;25.00;99.90;;;;;;4954583;28;19930;-71
2022/11/02 12:43:03;;;;;;;;;;;25.10;99.90;;;;;;4954634;28;19973;-71
2022/11/02 12:45:36;;;;;;;;;;;25.10;99.90;;;;;;4953677;28;19927;-69
2022/11/02 12:48:04;;;;;;;;;;;25.10;99.90;;;;;;4952942;28;19926;-71
2022/11/02 12:50:36;;;;;;;;;;;24.30;99.90;;;;;;4952524;28;19927;-71
2022/11/02 12:53:08;;;;;;;;;;;21.60;99.90;;;;;;4952224;28;19926;-71
2022/11/02 12:55:37;;;;;;;;;;;22.50;99.90;;;;;;4956044;28;20033;-71
2022/11/02 12:58:06;;;;;;;;;;;20.10;99.90;;;;;;4953103;28;19953;-72
2022/11/02 13:00:36;;;;;;;;;;;20.00;99.90;;;;;;4950281;28;19926;-72
2022/11/02 13:03:06;;;;;;;;;;;21.00;99.90;;;;;;4946472;28;19926;-72
2022/11/02 13:05:34;;;;;;;;;;;23.50;99.90;;;;;;4954576;28;20385;-72
2022/11/02 13:08:03;;;;;;;;;;;23.30;99.90;;;;;;4951214;28;19970;-72
2022/11/02 13:10:32;;;;;;;;;;;22.20;99.90;;;;;;4955959;28;19934;-72
2022/11/02 13:13:02;;;;;;;;;;;23.20;99.90;;;;;;4952487;28;20401;-72
2022/11/02 13:15:31;;;;;;;;;;;22.20;99.90;;;;;;4955616;28;19926;-71
2022/11/02 13:17:59;;;;;;;;;;;20.70;99.90;;;;;;4952892;28;19930;-71
2022/11/02 13:20:29;;;;;;;;;;;20.10;99.90;;;;;;4950859;28;19927;-71
2022/11/02 13:22:57;;;;;;;;;;;20.70;99.90;;;;;;4951944;28;19926;-72
2022/11/02 13:25:27;;;;;;;;;;;20.40;99.90;;;;;;4948388;28;19933;-72
2022/11/02 13:27:56;;;;;;;;;;;21.00;99.90;;;;;;4952785;28;19927;-71
2022/11/02 13:30:23;;;;;;;;;;;20.60;99.90;;;;;;4947398;28;20309;-71
2022/11/02 13:32:54;;;;;;;;;;;20.20;99.90;;;;;;4952295;28;19933;-70
2022/11/02 13:35:27;;;;;;;;;;;20.30;99.90;;;;;;4952097;28;20416;-71
2022/11/02 13:37:58;;;;;;;;;;;20.80;99.90;;;;;;4952340;28;19927;-71
2022/11/02 13:40:27;;;;;;;;;;;20.60;99.90;;;;;;4955308;28;20390;-71
2022/11/02 13:43:02;;;;;;;;;;;20.80;99.90;;;;;;4952161;28;20508;-70
2022/11/02 13:45:39;;;;;;;;;;;20.80;99.90;;;;;;4950719;28;19937;-73
2022/11/02 13:48:24;;;;;;;;;;;20.60;99.90;;;;;;4952374;28;19990;-70
2022/11/02 13:50:53;;;;;;;;;;;20.60;99.90;;;;;;4951297;28;19927;-71
2022/11/02 13:53:23;;;;;;;;;;;20.10;99.90;;;;;;4952380;28;20021;-71
2022/11/02 13:55:53;;;;;;;;;;;20.00;99.90;;;;;;4952140;28;19933;-71
2022/11/02 13:58:22;;;;;;;;;;;19.80;99.90;;;;;;4958845;28;19933;-71
2022/11/02 14:00:50;;;;;;;;;;;20.20;99.90;;;;;;4946808;28;19933;-70
2022/11/02 14:03:20;;;;;;;;;;;20.20;99.90;;;;;;4952328;28;19930;-70
2022/11/02 14:05:48;;;;;;;;;;;20.50;99.90;;;;;;4952284;28;20025;-71
2022/11/02 14:08:20;;;;;;;;;;;20.90;99.90;;;;;;4953699;28;19926;-72
2022/11/02 14:11:01;;;;;;;;;;;21.20;99.90;;;;;;4946540;28;20049;-71
2022/11/02 14:13:43;;;;;;;;;;;22.20;99.90;;;;;;4950863;28;19930;-71
2022/11/02 14:16:09;;;;;;;;;;;21.60;99.90;;;;;;4940461;28;19930;-72
2022/11/02 14:18:36;;;;;;;;;;;20.90;99.90;;;;;;4951067;28;19931;-71
2022/11/02 14:21:18;;;;;;;;;;;19.70;99.90;;;;;;4951625;28;20287;-72
2022/11/02 14:23:45;;;;;;;;;;;19.50;99.90;;;;;;4950977;28;20291;-71
2022/11/02 14:26:31;;;;;;;;;;;19.60;99.90;;;;;;4951959;28;20345;-71
2022/11/02 14:28:59;;;;;;;;;;;19.30;99.90;;;;;;4951055;28;19933;-72
2022/11/02 14:31:38;;;;;;;;;;;19.30;99.90;;;;;;4951919;28;19978;-71
2022/11/02 14:34:13;;;;;;;;;;;18.70;99.90;;;;;;4948256;28;19931;-72
2022/11/02 14:36:46;;;;;;;;;;;19.10;99.90;;;;;;4951406;28;19926;-72
2022/11/02 14:39:17;;;;;;;;;;;19.00;99.90;;;;;;4949484;28;19930;-71
2022/11/02 14:42:01;;;;;;;;;;;18.40;99.90;;;;;;4951342;28;19981;-71
2022/11/02 14:44:55;;;;;;;;;;;17.90;99.90;;;;;;4940672;28;19930;-71
2022/11/02 14:47:26;;;;;;;;;;;17.00;99.90;;;;;;4922417;28;20353;-70
2022/11/02 14:49:55;;;;;;;;;;;16.80;99.90;;;;;;4950201;28;19927;-70
2022/11/02 14:52:27;;;;;;;;;;;16.50;99.90;;;;;;4951284;28;19927;-71
2022/11/02 14:54:56;;;;;;;;;;;16.70;99.90;;;;;;4951434;28;20373;-71
2022/11/02 14:57:24;;;;;;;;;;;16.90;99.90;;;;;;4949607;28;19926;-70
2022/11/02 14:59:52;;;;;;;;;;;16.90;99.90;;;;;;4950365;28;19927;-70
2022/11/02 15:02:20;;;;;;;;;;;17.10;99.90;;;;;;4951362;28;19934;-71
2022/11/02 15:04:51;;;;;;;;;;;17.20;99.90;;;;;;4951301;28;19950;-71
2022/11/02 15:07:20;;;;;;;;;;;17.10;99.90;;;;;;4948727;28;20331;-70
2022/11/02 15:09:58;;;;;;;;;;;17.10;99.90;;;;;;4950731;28;19937;-70
2022/11/02 15:12:29;;;;;;;;;;;17.20;99.90;;;;;;4951324;28;19930;-70
2022/11/02 15:14:59;;;;;;;;;;;17.30;99.90;;;;;;4946452;28;19927;-70
2022/11/02 15:17:44;;;;;;;;;;;17.30;99.90;;;;;;4949090;28;19930;-71
2022/11/02 15:20:27;;;;;;;;;;;17.10;99.90;;;;;;4946043;28;19926;-71
2022/11/02 15:22:55;;;;;;;;;;;16.90;99.90;;;;;;4954144;28;20021;-73
2022/11/02 15:25:25;;;;;;;;;;;16.30;99.90;;;;;;4955134;28;20362;-70
2022/11/02 15:27:54;;;;;;;;;;;16.20;99.90;;;;;;4947503;28;19934;-70
2022/11/02 15:30:22;;;;;;;;;;;16.20;99.90;;;;;;4954964;29;19926;-70
2022/11/02 15:32:49;;;;;;;;;;;16.10;99.90;;;;;;4956711;28;19926;-70
2022/11/02 15:35:19;;;;;;;;;;;16.40;99.90;;;;;;4954839;28;19926;-70
2022/11/02 15:37:47;;;;;;;;;;;16.40;99.90;;;;;;4954575;28;19938;-70
2022/11/02 15:40:21;;;;;;;;;;;16.40;99.90;;;;;;4954804;28;20393;-70
2022/11/02 15:42:52;;;;;;;;;;;16.40;99.90;;;;;;4954896;28;19938;-70
2022/11/02 15:45:21;;;;;;;;;;;16.10;99.90;;;;;;4954947;28;19930;-71
2022/11/02 15:47:53;;;;;;;;;;;15.80;99.90;;;;;;4954962;28;20361;-70
2022/11/02 15:50:40;;;;;;;;;;;15.90;99.90;;;;;;4951815;28;19927;-70
2022/11/02 15:53:20;;;;;;;;;;;15.70;99.90;;;;;;4950579;28;19937;-70
2022/11/02 15:55:53;;;;;;;;;;;15.40;99.90;;;;;;4960475;28;19939;-71
2022/11/02 15:58:24;;;;;;;;;;;15.10;99.90;;;;;;4956107;28;20037;-70
2022/11/02 16:01:04;;;;;;;;;;;14.70;99.90;;;;;;4954921;28;20283;-70
2022/11/02 16:03:31;;;;;;;;;;;14.50;99.90;;;;;;4955591;28;19926;-71
2022/11/02 16:05:59;;;;;;;;;;;14.30;99.90;;;;;;4958748;28;19931;-70
2022/11/02 16:08:33;;;;;;;;;;;14.10;99.90;;;;;;4961092;28;19926;-70
2022/11/02 16:11:03;;;;;;;;;;;14.00;99.90;;;;;;4945096;28;19927;-70
2022/11/02 16:13:33;;;;;;;;;;;13.90;99.90;;;;;;4958113;28;19926;-70
2022/11/02 16:16:02;;;;;;;;;;;13.70;99.90;;;;;;4946457;28;20274;-70
2022/11/02 16:18:30;;;;;;;;;;;13.70;99.90;;;;;;4959515;28;19927;-71
2022/11/02 16:20:59;;;;;;;;;;;13.60;99.90;;;;;;4961221;28;19933;-70
2022/11/02 16:23:27;;;;;;;;;;;13.50;99.90;;;;;;4956842;28;20434;-70
2022/11/02 16:25:57;;;;;;;;;;;13.40;99.90;;;;;;4961073;28;19926;-71
2022/11/02 16:28:25;;;;;;;;;;;13.30;99.90;;;;;;4952336;28;20365;-73
2022/11/02 16:31:02;;;;;;;;;;;13.20;99.90;;;;;;4954214;28;19933;-70
2022/11/02 16:33:30;;;;;;;;;;;13.10;99.90;;;;;;4953804;28;19981;-70
2022/11/02 16:35:57;;;;;;;;;;;13.00;99.90;;;;;;4954288;28;19931;-70
2022/11/02 16:38:23;;;;;;;;;;;13.00;99.90;;;;;;4960021;28;19927;-71
2022/11/02 16:40:50;;;;;;;;;;;12.90;99.90;;;;;;4953923;28;19926;-71
2022/11/02 16:43:19;;;;;;;;;;;12.80;99.90;;;;;;4954529;28;19926;-70
2022/11/02 16:45:49;;;;;;;;;;;12.70;99.90;;;;;;4953047;28;19973;-70
2022/11/02 16:48:17;;;;;;;;;;;12.60;99.90;;;;;;4954745;28;19926;-70
2022/11/02 16:50:58;;;;;;;;;;;12.60;99.90;;;;;;4953570;28;20378;-69
2022/11/02 16:53:27;;;;;;;;;;;12.50;99.90;;;;;;4947423;29;20342;-71
2022/11/02 16:55:59;;;;;;;;;;;12.50;99.90;;;;;;4955509;28;20167;-75
2022/11/02 16:58:27;;;;;;;;;;;12.40;99.90;;;;;;4958731;28;20476;-70
2022/11/02 17:00:55;;;;;;;;;;;12.20;99.90;;;;;;4953972;28;19926;-70
2022/11/02 17:03:23;;;;;;;;;;;12.20;99.90;;;;;;4961282;28;19931;-71
2022/11/02 17:05:50;;;;;;;;;;;12.20;99.90;;;;;;4957710;28;19926;-71
2022/11/02 17:08:27;;;;;;;;;;;12.10;99.90;;;;;;4953901;28;19926;-71
2022/11/02 17:10:55;;;;;;;;;;;12.00;99.90;;;;;;4958232;28;19930;-71
2022/11/02 17:13:23;;;;;;;;;;;12.00;99.90;;;;;;4953719;28;20025;-71
2022/11/02 17:15:53;;;;;;;;;;;12.00;99.90;;;;;;4953877;28;19926;-71
2022/11/02 17:18:28;;;;;;;;;;;11.90;99.90;;;;;;4953985;28;20385;-71
2022/11/02 17:21:13;;;;;;;;;;;11.80;99.90;;;;;;4954312;28;19935;-69
2022/11/02 17:23:41;;;;;;;;;;;11.70;99.90;;;;;;4953314;28;20460;-71
2022/11/02 17:26:26;;;;;;;;;;;11.70;99.90;;;;;;4958232;28;19927;-68
2022/11/02 17:28:54;;;;;;;;;;;11.70;99.90;;;;;;4951756;28;19934;-68
2022/11/02 17:31:23;;;;;;;;;;;11.70;99.90;;;;;;4953202;28;19927;-68
2022/11/02 17:33:50;;;;;;;;;;;11.70;99.90;;;;;;4952751;28;19927;-67
2022/11/02 17:36:17;;;;;;;;;;;11.70;99.90;;;;;;4952367;28;19927;-68
2022/11/02 17:38:44;;;;;;;;;;;11.80;99.90;;;;;;4952054;28;19927;-67
2022/11/02 17:43:52;;;;;;;;;;;11.80;99.90;;;;;;4952139;28;19926;-69
2022/11/02 17:46:19;;;;;;;;;;;11.70;99.90;;;;;;4953163;28;19933;-68
2022/11/02 17:48:47;;;;;;;;;;;11.60;99.90;;;;;;4953161;28;19950;-70
2022/11/02 17:51:14;;;;;;;;;;;11.60;99.90;;;;;;4954586;28;19926;-77
2022/11/02 17:53:41;;;;;;;;;;;11.50;99.90;;;;;;4957355;28;19930;-75
2022/11/02 17:56:09;;;;;;;;;;;11.40;99.90;;;;;;4952012;28;19949;-68
2022/11/02 17:58:36;;;;;;;;;;;11.40;99.90;;;;;;4951034;28;19927;-70
2022/11/02 18:01:03;;;;;;;;;;;11.40;99.90;;;;;;4944688;28;20381;-69
2022/11/02 18:03:30;;;;;;;;;;;11.40;99.90;;;;;;4948237;28;19942;-69
2022/11/02 18:05:59;;;;;;;;;;;11.40;99.90;;;;;;4952412;28;19934;-70
2022/11/02 18:08:25;;;;;;;;;;;11.40;99.90;;;;;;4952344;28;19927;-69
2022/11/02 18:10:52;;;;;;;;;;;11.30;99.90;;;;;;4952410;28;19949;-69
2022/11/02 18:13:22;;;;;;;;;;;11.30;99.90;;;;;;4936127;29;21875;-67
2022/11/02 18:15:49;;;;;;;;;;;11.30;99.90;;;;;;4952447;29;20016;-67
2022/11/02 18:18:16;;;;;;;;;;;11.30;99.90;;;;;;4952760;28;19930;-69
2022/11/02 18:20:42;;;;;;;;;;;11.20;99.90;;;;;;4952495;28;19931;-66
2022/11/02 18:23:13;;;;;;;;;;;11.20;99.90;;;;;;4953089;28;19926;-66
2022/11/02 18:25:40;;;;;;;;;;;11.20;99.90;;;;;;4952655;28;19926;-67
2022/11/02 18:28:07;;;;;;;;;;;11.10;99.90;;;;;;4945992;29;20334;-68
2022/11/02 18:30:34;;;;;;;;;;;11.10;99.90;;;;;;4952652;28;19934;-69
2022/11/02 18:33:01;;;;;;;;;;;11.00;99.90;;;;;;4951239;29;19930;-69
2022/11/02 18:35:28;;;;;;;;;;;11.00;99.90;;;;;;4952683;28;19926;-70
2022/11/02 18:37:55;;;;;;;;;;;10.90;99.90;;;;;;4951895;29;19934;-70
2022/11/02 18:40:23;;;;;;;;;;;10.80;99.90;;;;;;4952502;28;19930;-70
2022/11/02 18:42:50;;;;;;;;;;;10.70;99.90;;;;;;4952456;28;20417;-70
2022/11/02 18:45:18;;;;;;;;;;;10.70;99.90;;;;;;4952591;28;19934;-70
2022/11/02 18:47:45;;;;;;;;;;;10.60;99.90;;;;;;4945170;28;19927;-69
2022/11/02 18:50:12;;;;;;;;;;;10.50;99.90;;;;;;4952192;28;19927;-69